FZAA/FIH METAR and TAF weather

Enter ICAO airport designator
Station Type Date Time Source
FZAA METAR 2020/04/07 03:00 UTC NOAA

FZAA 070300Z 18006KT 8000 FEW016 SCT110 25/22 Q1011 NOSIG


Station Type Date Time Source
FZAA Decoded METAR 2020/04/07 03:00 UTC NOAA

Kinshasa / N'Djili, Congo, Democratic Republic of the (FZAA) 04-23S 015-26E 312M
Apr 06, 2020 - 11:00 PM EDT / 2020.04.07 0300 UTC
Wind: from the S (180 degrees) at 7 MPH (6 KT):0
Visibility: 4 mile(s):0
Sky conditions: partly cloudy
Temperature: 77 F (25 C)
Dew Point: 71 F (22 C)
Relative Humidity: 83%
Pressure (altimeter): 29.85 in. Hg (1011 hPa)
ob: FZAA 070300Z 18006KT 8000 FEW016 SCT110 25/22 Q1011 NOSIG
cycle: 3

Station Type Date Time Source
FZAA TAF 2020/04/06 18:54 UTC NOAA

TAF TAF FZAA 061700Z 0618/0724 30010KT 8000 SCT022 FEW030CB PROB30
TEMPO 0619/0623 TS
BECMG 0701/0703 22004KT BKN016
BECMG 0710/0712 34010KT SCT024 FEW030CB
TEMPO 0716/0720 TS

Example: see airport list